createdAt,value
2023-03-20T00:02:02.919Z,3.30
2023-03-20T00:04:30.931Z,3.60
2023-03-20T00:06:58.809Z,3.60
2023-03-20T00:09:27.267Z,3.93
2023-03-20T00:11:56.810Z,3.60
2023-03-20T00:14:26.613Z,3.87
2023-03-20T00:16:54.587Z,3.40
2023-03-20T00:19:24.461Z,4.03
2023-03-20T00:21:53.309Z,3.70
2023-03-20T00:24:21.694Z,3.90
2023-03-20T00:26:51.585Z,3.67
2023-03-20T00:29:23.240Z,4.10
2023-03-20T00:31:53.244Z,3.70
2023-03-20T00:34:23.891Z,3.90
2023-03-20T00:36:52.365Z,4.10
2023-03-20T00:39:20.645Z,3.90
2023-03-20T00:41:52.732Z,3.90
2023-03-20T00:44:25.220Z,3.90
2023-03-20T00:46:57.337Z,4.40
2023-03-20T00:49:29.236Z,3.90
2023-03-20T00:51:58.252Z,3.77
2023-03-20T00:54:26.643Z,4.40
2023-03-20T00:56:59.377Z,4.40
2023-03-20T00:59:32.001Z,4.97
2023-03-20T01:02:02.689Z,4.23
2023-03-20T01:04:37.466Z,4.87
2023-03-20T01:07:06.391Z,5.03
2023-03-20T01:09:34.905Z,5.10
2023-03-20T01:12:04.158Z,4.60
2023-03-20T01:14:32.303Z,5.40
2023-03-20T01:17:01.590Z,4.70
2023-03-20T01:19:29.456Z,4.77
2023-03-20T01:21:57.539Z,4.87
2023-03-20T01:24:25.620Z,5.30
2023-03-20T01:26:54.856Z,5.40
2023-03-20T01:29:27.270Z,5.57
2023-03-20T01:31:55.508Z,4.80
2023-03-20T01:34:24.722Z,5.27
2023-03-20T01:36:54.820Z,4.67
2023-03-20T01:39:24.519Z,5.13
2023-03-20T01:41:54.299Z,5.03
2023-03-20T01:44:24.954Z,5.50
2023-03-20T01:46:53.751Z,5.37
2023-03-20T01:50:19.537Z,4.80
2023-03-20T01:52:49.796Z,5.10
2023-03-20T01:55:18.025Z,5.33
2023-03-20T01:57:46.528Z,4.93
2023-03-20T02:00:16.920Z,5.20
2023-03-20T02:02:46.450Z,4.80
2023-03-20T02:05:18.846Z,4.97
2023-03-20T02:07:51.569Z,4.80
2023-03-20T02:10:20.221Z,5.17
2023-03-20T02:12:48.472Z,4.73
2023-03-20T02:15:18.339Z,5.20
2023-03-20T02:17:46.442Z,5.50
2023-03-20T02:20:29.096Z,5.20
2023-03-20T02:23:37.410Z,5.07
2023-03-20T02:26:27.120Z,5.03
2023-03-20T02:29:28.691Z,5.37
2023-03-20T02:32:26.722Z,6.33
2023-03-20T02:35:26.398Z,5.53
2023-03-20T02:38:27.466Z,5.23
2023-03-20T02:41:04.230Z,5.13
2023-03-20T02:43:43.936Z,5.73
2023-03-20T02:46:18.668Z,5.63
2023-03-20T02:48:54.528Z,5.23
2023-03-20T02:51:30.246Z,5.53
2023-03-20T02:54:08.017Z,5.27
2023-03-20T02:56:43.631Z,5.40
2023-03-20T02:59:23.297Z,5.40
2023-03-20T03:01:56.275Z,5.77
2023-03-20T03:04:29.150Z,5.73
2023-03-20T03:06:59.560Z,6.07
2023-03-20T03:09:32.285Z,6.37
2023-03-20T03:12:06.052Z,5.90
2023-03-20T03:14:40.276Z,6.00
2023-03-20T03:17:11.113Z,5.80
2023-03-20T03:19:42.505Z,5.93
2023-03-20T03:22:10.495Z,5.60
2023-03-20T03:24:44.291Z,5.77
2023-03-20T03:27:19.564Z,6.37
2023-03-20T03:29:52.770Z,5.83
2023-03-20T03:32:26.119Z,6.23
2023-03-20T03:34:55.730Z,6.07
2023-03-20T03:37:32.350Z,6.67
2023-03-20T03:40:11.931Z,7.00
2023-03-20T03:42:43.280Z,6.90
2023-03-20T03:45:17.425Z,6.40
2023-03-20T03:47:51.051Z,6.73
2023-03-20T03:50:24.530Z,6.80
2023-03-20T03:52:55.383Z,6.77
2023-03-20T03:55:28.479Z,7.00
2023-03-20T03:58:01.193Z,7.30
2023-03-20T04:00:29.876Z,7.60
2023-03-20T04:02:59.159Z,6.40
2023-03-20T04:05:33.575Z,7.23
2023-03-20T04:08:04.243Z,6.50
2023-03-20T04:10:33.546Z,7.10
2023-03-20T04:13:01.663Z,6.50
2023-03-20T04:15:29.615Z,6.30
2023-03-20T04:17:57.719Z,6.50
2023-03-20T04:20:26.645Z,5.97
2023-03-20T04:22:54.503Z,5.43
2023-03-20T04:25:26.095Z,5.57
2023-03-20T04:27:55.777Z,5.87
2023-03-20T04:30:23.793Z,5.80
2023-03-20T04:32:51.755Z,5.37
2023-03-20T04:35:20.050Z,5.10
2023-03-20T04:37:48.128Z,5.30
2023-03-20T04:40:16.189Z,5.27
2023-03-20T04:42:45.623Z,5.00
2023-03-20T04:45:14.923Z,4.83
2023-03-20T04:47:43.883Z,4.57
2023-03-20T04:50:14.102Z,4.97
2023-03-20T04:52:42.064Z,4.43
2023-03-20T04:55:10.689Z,4.33
2023-03-20T04:57:38.675Z,4.50
2023-03-20T05:00:07.863Z,4.23
2023-03-20T05:02:37.248Z,4.50
2023-03-20T05:05:05.825Z,4.50
2023-03-20T05:07:33.953Z,4.83
2023-03-20T05:10:01.861Z,5.00
2023-03-20T05:12:29.740Z,4.80
2023-03-20T05:14:57.558Z,4.90
2023-03-20T05:17:26.114Z,5.27
2023-03-20T05:19:55.380Z,5.30
2023-03-20T05:22:23.181Z,5.30
2023-03-20T05:24:51.086Z,6.00
2023-03-20T05:27:19.733Z,6.83
2023-03-20T05:29:47.590Z,6.60
2023-03-20T05:32:15.670Z,5.87
2023-03-20T05:34:46.153Z,6.33
2023-03-20T05:37:15.465Z,6.63
2023-03-20T05:39:43.415Z,6.70
2023-03-20T05:42:11.314Z,6.73
2023-03-20T05:44:39.207Z,6.73
2023-03-20T05:47:07.335Z,6.57
2023-03-20T05:49:35.220Z,6.50
2023-03-20T05:52:03.054Z,7.00
2023-03-20T05:54:32.317Z,7.67
2023-03-20T05:57:00.301Z,7.47
2023-03-20T05:59:28.170Z,7.53
2023-03-20T06:01:56.155Z,8.07
2023-03-20T06:04:24.139Z,7.97
2023-03-20T06:06:52.044Z,8.33
2023-03-20T06:09:20.168Z,8.50
2023-03-20T06:11:49.730Z,8.10
2023-03-20T06:14:17.598Z,9.23
2023-03-20T06:16:45.630Z,9.50
2023-03-20T06:19:13.815Z,9.40
2023-03-20T06:21:41.654Z,10.07
2023-03-20T06:24:09.680Z,10.03
2023-03-20T06:26:37.649Z,7.97
2023-03-20T06:29:06.952Z,11.30
2023-03-20T06:31:35.162Z,11.77
2023-03-20T06:34:03.187Z,11.67
2023-03-20T06:36:31.295Z,11.55
2023-03-20T06:38:59.289Z,11.53
2023-03-20T06:41:34.210Z,11.67
2023-03-20T06:44:03.474Z,11.77
2023-03-20T06:46:32.861Z,11.90
2023-03-20T06:49:01.444Z,12.83
2023-03-20T06:51:29.588Z,12.53
2023-03-20T06:53:57.521Z,13.50
2023-03-20T06:56:25.683Z,12.60
2023-03-20T06:58:53.622Z,12.37
2023-03-20T07:01:21.707Z,12.27
2023-03-20T07:03:51.673Z,12.85
2023-03-20T07:06:19.608Z,11.85
2023-03-20T07:08:47.518Z,12.40
2023-03-20T07:11:15.505Z,12.50
2023-03-20T07:13:44.137Z,13.65
2023-03-20T07:16:12.081Z,11.93
2023-03-20T07:18:40.111Z,10.57
2023-03-20T07:21:17.485Z,13.75
2023-03-20T07:23:45.438Z,12.70
2023-03-20T07:26:13.872Z,13.52
2023-03-20T07:28:41.789Z,12.55
2023-03-20T07:31:19.644Z,13.38
2023-03-20T07:33:48.063Z,12.52
2023-03-20T07:36:17.369Z,12.25
2023-03-20T07:38:45.308Z,12.13
2023-03-20T07:41:13.426Z,10.65
2023-03-20T07:43:42.228Z,11.85
2023-03-20T07:46:11.566Z,12.85
2023-03-20T07:48:40.668Z,13.18
2023-03-20T07:51:09.175Z,13.57
2023-03-20T07:53:38.464Z,12.10
2023-03-20T07:56:07.158Z,11.40
2023-03-20T07:58:35.028Z,12.60
2023-03-20T08:01:03.740Z,12.15
2023-03-20T08:03:33.134Z,12.25
2023-03-20T08:06:01.834Z,12.27
2023-03-20T08:08:29.774Z,13.05
2023-03-20T08:10:59.191Z,12.27
2023-03-20T08:13:26.999Z,13.27
2023-03-20T08:15:54.807Z,12.55
2023-03-20T08:18:22.944Z,11.85
2023-03-20T08:20:52.639Z,12.73
2023-03-20T08:23:21.077Z,13.68
2023-03-20T08:25:49.699Z,12.68
2023-03-20T08:28:19.569Z,11.85
2023-03-20T08:30:48.295Z,12.48
2023-03-20T08:33:17.748Z,12.35
2023-03-20T08:35:55.922Z,13.60
2023-03-20T08:38:24.132Z,13.00
2023-03-20T08:40:55.065Z,13.75
2023-03-20T08:43:24.324Z,13.32
2023-03-20T08:45:52.522Z,10.98
2023-03-20T08:48:20.423Z,13.63
2023-03-20T08:50:48.346Z,14.75
2023-03-20T08:53:16.579Z,13.15
2023-03-20T08:55:49.132Z,13.00
2023-03-20T08:58:17.380Z,13.38
2023-03-20T09:00:46.736Z,12.73
2023-03-20T09:03:15.773Z,14.20
2023-03-20T09:05:44.787Z,13.25
2023-03-20T09:08:13.069Z,12.82
2023-03-20T09:10:42.024Z,13.73
2023-03-20T09:13:26.192Z,12.85
2023-03-20T09:15:57.527Z,13.35
2023-03-20T09:18:26.012Z,12.18
2023-03-20T09:20:56.642Z,12.32
2023-03-20T09:23:24.646Z,11.45
2023-03-20T09:25:52.769Z,12.00
2023-03-20T09:28:20.761Z,12.45
2023-03-20T09:30:48.803Z,9.63
2023-03-20T09:33:18.889Z,12.63
2023-03-20T09:35:47.032Z,12.48
2023-03-20T09:38:15.024Z,12.68
2023-03-20T09:40:52.578Z,12.85
2023-03-20T09:43:43.491Z,11.70
2023-03-20T09:46:22.892Z,12.93
2023-03-20T09:48:59.364Z,13.40
2023-03-20T09:51:37.935Z,13.68
2023-03-20T09:54:15.773Z,13.23
2023-03-20T09:56:43.911Z,14.27
2023-03-20T09:59:15.590Z,13.73
2023-03-20T10:01:49.426Z,14.25
2023-03-20T10:04:19.116Z,14.43
2023-03-20T10:06:47.752Z,13.10
2023-03-20T10:09:23.399Z,14.32
2023-03-20T10:12:24.824Z,13.13
2023-03-20T10:15:02.436Z,14.68
2023-03-20T10:17:46.808Z,15.27
2023-03-20T10:20:27.082Z,14.70
2023-03-20T10:22:59.309Z,14.48
2023-03-20T10:25:33.388Z,14.13
2023-03-20T10:28:04.352Z,15.00
2023-03-20T10:30:45.372Z,14.40
2023-03-20T10:33:28.044Z,15.10
2023-03-20T10:36:11.505Z,14.55
2023-03-20T10:38:47.111Z,15.48
2023-03-20T10:41:19.017Z,15.18
2023-03-20T10:43:49.918Z,15.23
2023-03-20T10:46:23.396Z,16.40
2023-03-20T10:48:58.103Z,15.57
2023-03-20T10:51:40.255Z,15.35
2023-03-20T10:54:20.849Z,12.32
2023-03-20T10:56:52.225Z,14.18
2023-03-20T10:59:24.886Z,13.63
2023-03-20T11:01:52.973Z,14.55
2023-03-20T11:04:21.343Z,15.18
2023-03-20T11:06:58.524Z,15.30
2023-03-20T11:09:27.152Z,12.85
2023-03-20T11:11:59.173Z,13.43
2023-03-20T11:14:33.514Z,13.63
2023-03-20T11:17:03.963Z,13.35
2023-03-20T11:19:35.924Z,14.77
2023-03-20T11:22:26.872Z,15.27
2023-03-20T11:25:01.714Z,12.85
2023-03-20T11:27:31.799Z,12.98
2023-03-20T11:30:03.753Z,12.25
2023-03-20T11:32:34.030Z,13.52
2023-03-20T11:35:13.353Z,13.90
2023-03-20T11:37:47.862Z,13.82
2023-03-20T11:40:22.807Z,13.95
2023-03-20T11:42:57.227Z,14.40
2023-03-20T11:45:25.815Z,15.18
2023-03-20T11:47:56.412Z,14.00
2023-03-20T11:50:32.644Z,14.00
2023-03-20T11:53:02.648Z,14.60
2023-03-20T11:55:33.446Z,13.60
2023-03-20T11:58:04.300Z,15.80
2023-03-20T12:00:38.804Z,13.68
2023-03-20T12:03:29.377Z,14.90
2023-03-20T12:06:01.968Z,14.88
2023-03-20T12:08:33.592Z,15.55
2023-03-20T12:11:11.146Z,14.77
2023-03-20T12:13:44.698Z,15.52
2023-03-20T12:16:16.945Z,14.70
2023-03-20T12:18:47.704Z,15.38
2023-03-20T12:21:22.442Z,15.55
2023-03-20T12:23:57.498Z,14.98
2023-03-20T12:26:33.937Z,14.18
2023-03-20T12:29:08.000Z,15.45
2023-03-20T12:31:43.325Z,15.60
2023-03-20T12:34:13.905Z,14.77
2023-03-20T12:36:44.907Z,15.10
2023-03-20T12:39:17.430Z,15.43
2023-03-20T12:41:58.304Z,14.90
2023-03-20T12:44:39.634Z,15.13
2023-03-20T12:47:36.348Z,14.32
2023-03-20T12:50:16.739Z,15.25
2023-03-20T12:52:53.105Z,14.55
2023-03-20T12:55:35.005Z,16.42
2023-03-20T12:58:09.601Z,15.88
2023-03-20T13:00:45.984Z,14.88
2023-03-20T13:03:46.418Z,8.45
2023-03-20T13:06:21.169Z,12.93
2023-03-20T13:09:06.806Z,12.13
2023-03-20T13:11:44.162Z,7.13
2023-03-20T13:14:19.444Z,6.55
2023-03-20T13:16:53.921Z,6.68
2023-03-20T13:19:29.517Z,6.90
2023-03-20T13:22:03.856Z,6.60
2023-03-20T13:24:41.373Z,4.72
2023-03-20T13:27:32.323Z,4.93
2023-03-20T13:30:05.173Z,4.63
2023-03-20T13:32:47.473Z,3.90
2023-03-20T13:35:29.302Z,3.90
2023-03-20T13:38:01.682Z,3.70
2023-03-20T13:40:31.252Z,3.45
2023-03-20T13:43:09.777Z,2.58
2023-03-20T13:45:40.297Z,3.10
2023-03-20T13:48:24.348Z,3.00
2023-03-20T13:51:02.251Z,2.75
2023-03-20T13:53:36.306Z,2.20
2023-03-20T13:56:12.915Z,2.25
2023-03-20T13:59:08.020Z,2.25
2023-03-20T14:01:49.397Z,1.20
2023-03-20T14:04:20.313Z,1.10
2023-03-20T14:06:54.071Z,1.10
2023-03-20T14:09:32.197Z,0.80
2023-03-20T14:12:06.522Z,0.60
2023-03-20T14:14:43.247Z,1.10
2023-03-20T14:17:19.152Z,0.90
2023-03-20T14:19:48.078Z,0.70
2023-03-20T14:22:19.099Z,0.47
2023-03-20T14:24:55.072Z,0.50
2023-03-20T14:27:42.899Z,0.45
2023-03-20T14:30:41.951Z,0.70
2023-03-20T14:33:27.191Z,0.40
2023-03-20T14:36:18.940Z,0.52
2023-03-20T14:38:55.099Z,0.40
2023-03-20T14:41:28.147Z,0.30
2023-03-20T14:44:07.558Z,0.30
2023-03-20T14:46:48.960Z,0.40
2023-03-20T14:49:27.686Z,0.30
2023-03-20T14:52:02.043Z,0.22
2023-03-20T14:54:31.418Z,0.30
2023-03-20T14:57:11.331Z,0.50
2023-03-20T14:59:39.541Z,0.60
2023-03-20T15:02:28.145Z,0.50
2023-03-20T15:04:57.449Z,0.50
2023-03-20T15:07:27.650Z,0.32
2023-03-20T15:09:59.314Z,0.30
2023-03-20T15:12:30.253Z,0.70
2023-03-20T15:15:00.004Z,0.60
2023-03-20T15:17:36.127Z,0.30
2023-03-20T15:20:08.252Z,0.20
2023-03-20T15:22:36.196Z,0.30
2023-03-20T15:25:04.868Z,0.30
2023-03-20T15:27:32.829Z,0.32
2023-03-20T15:30:03.844Z,0.35
2023-03-20T15:32:34.479Z,0.40
2023-03-20T15:35:06.191Z,0.10
2023-03-20T15:37:35.976Z,0.10
2023-03-20T15:40:13.174Z,0.20
2023-03-20T15:42:41.295Z,0.10
2023-03-20T15:45:22.675Z,0.20
2023-03-20T15:47:52.048Z,0.65
2023-03-20T15:50:20.438Z,0.40
2023-03-20T15:52:53.360Z,0.20
2023-03-20T15:55:25.996Z,0.17
2023-03-20T15:57:58.391Z,0.20
2023-03-20T16:00:30.571Z,0.30
2023-03-20T16:03:01.513Z,0.20
2023-03-20T16:05:31.373Z,0.30
2023-03-20T16:08:13.783Z,0.33
2023-03-20T16:10:44.052Z,0.20
2023-03-20T16:13:17.269Z,0.20
2023-03-20T16:15:48.677Z,0.20
2023-03-20T16:18:18.913Z,0.30
2023-03-20T16:20:53.618Z,0.40
2023-03-20T16:23:33.610Z,0.10
2023-03-20T16:26:03.617Z,0.13
2023-03-20T16:28:32.034Z,0.13
2023-03-20T16:31:10.390Z,0.13
2023-03-20T16:33:41.724Z,0.40
2023-03-20T16:36:10.680Z,0.13
2023-03-20T16:38:38.738Z,0.20
2023-03-20T16:41:17.967Z,0.20
2023-03-20T16:43:47.997Z,0.30
2023-03-20T16:46:23.361Z,0.37
2023-03-20T16:48:57.584Z,0.50
2023-03-20T16:51:28.266Z,0.40
2023-03-20T16:53:59.498Z,0.50
2023-03-20T16:56:30.460Z,0.30
2023-03-20T16:58:58.278Z,0.40
2023-03-20T17:01:29.698Z,0.20
2023-03-20T17:04:12.593Z,0.50
2023-03-20T17:06:47.394Z,0.30
2023-03-20T17:09:23.445Z,0.30
2023-03-20T17:11:58.026Z,0.20
2023-03-20T17:14:26.359Z,0.30
2023-03-20T17:16:55.495Z,0.40
2023-03-20T17:19:25.666Z,0.40
2023-03-20T17:21:53.690Z,0.30
2023-03-20T17:24:21.688Z,0.30
2023-03-20T17:26:54.524Z,0.30
2023-03-20T17:29:22.520Z,0.50
2023-03-20T17:31:50.414Z,0.40
2023-03-20T17:34:18.444Z,0.40
2023-03-20T17:36:49.165Z,0.40
2023-03-20T17:39:20.105Z,0.40
2023-03-20T17:41:48.685Z,0.30
2023-03-20T17:44:16.591Z,0.70
2023-03-20T17:46:57.707Z,0.30
2023-03-20T17:49:28.274Z,0.30
2023-03-20T17:51:57.995Z,0.30
2023-03-20T17:54:26.322Z,0.33
2023-03-20T17:56:54.421Z,0.40
2023-03-20T17:59:22.438Z,0.50
2023-03-20T18:01:50.687Z,0.40
2023-03-20T18:04:19.989Z,0.43
2023-03-20T18:06:49.190Z,0.50
2023-03-20T18:09:18.635Z,0.77
2023-03-20T18:11:46.460Z,0.30
2023-03-20T18:14:18.201Z,0.37
2023-03-20T18:16:46.346Z,0.40
2023-03-20T18:19:23.538Z,0.47
2023-03-20T18:21:51.569Z,0.27
2023-03-20T18:24:23.660Z,0.40
2023-03-20T18:26:53.054Z,0.63
2023-03-20T18:29:21.453Z,0.30
2023-03-20T18:31:51.580Z,0.47
2023-03-20T18:34:19.966Z,0.40
2023-03-20T18:36:47.957Z,0.53
2023-03-20T18:39:21.796Z,0.50
2023-03-20T18:41:50.358Z,0.37
2023-03-20T18:44:18.460Z,0.53
2023-03-20T18:46:46.685Z,0.50
2023-03-20T18:49:16.612Z,0.53
2023-03-20T18:51:45.259Z,0.77
2023-03-20T18:54:13.753Z,0.47
2023-03-20T18:56:43.243Z,0.40
2023-03-20T18:59:13.785Z,0.40
2023-03-20T19:01:41.884Z,0.50
2023-03-20T19:04:10.186Z,0.30
2023-03-20T19:06:38.124Z,0.83
2023-03-20T19:09:06.536Z,0.60
2023-03-20T19:11:34.407Z,0.80
2023-03-20T19:14:03.658Z,0.70
2023-03-20T19:16:35.090Z,0.80
2023-03-20T19:19:04.669Z,0.50
2023-03-20T19:21:34.292Z,0.53
2023-03-20T19:24:03.549Z,0.50
2023-03-20T19:26:32.605Z,0.60
2023-03-20T19:29:02.879Z,0.47
2023-03-20T19:31:32.408Z,0.40
2023-03-20T19:34:01.678Z,0.60
2023-03-20T19:36:31.559Z,0.43
2023-03-20T19:39:01.169Z,0.50
2023-03-20T19:41:29.895Z,0.50
2023-03-20T19:43:58.344Z,0.50
2023-03-20T19:46:39.713Z,0.40
2023-03-20T19:49:18.575Z,0.50
2023-03-20T19:51:47.207Z,0.50
2023-03-20T19:54:15.326Z,0.50
2023-03-20T19:56:43.165Z,0.50
2023-03-20T19:59:11.647Z,0.63
2023-03-20T20:01:39.675Z,0.70
2023-03-20T20:04:07.780Z,0.90
2023-03-20T20:06:39.757Z,0.60
2023-03-20T20:09:08.232Z,0.40
2023-03-20T20:11:36.112Z,0.60
2023-03-20T20:14:07.733Z,0.77
2023-03-20T20:16:37.740Z,0.80
2023-03-20T20:19:06.461Z,0.47
2023-03-20T20:24:23.856Z,0.80
2023-03-20T20:26:59.549Z,0.50
2023-03-20T20:29:31.524Z,0.50
2023-03-20T20:32:01.007Z,0.67
2023-03-20T20:38:09.021Z,0.50
2023-03-20T20:40:08.672Z,0.50
2023-03-20T20:42:37.642Z,0.63
2023-03-20T20:45:07.001Z,0.50
2023-03-20T20:47:35.097Z,0.30
2023-03-20T20:50:04.266Z,0.40
2023-03-20T20:52:35.415Z,0.50
2023-03-20T20:55:19.275Z,0.40
2023-03-20T20:57:52.105Z,0.50
2023-03-20T21:00:21.355Z,0.37
2023-03-20T21:02:49.264Z,0.50
2023-03-20T21:05:18.779Z,0.50
2023-03-20T21:07:49.335Z,0.40
2023-03-20T21:10:19.394Z,0.47
2023-03-20T21:12:58.645Z,0.40
2023-03-20T21:15:29.211Z,0.30
2023-03-20T21:18:01.529Z,0.40
2023-03-20T21:20:30.094Z,0.60
2023-03-20T21:22:58.394Z,0.50
2023-03-20T21:25:39.233Z,0.50
2023-03-20T21:28:08.274Z,0.50
2023-03-20T21:30:44.260Z,0.60
2023-03-20T21:33:25.275Z,0.70
2023-03-20T21:35:54.612Z,0.50
2023-03-20T21:38:58.568Z,0.50
2023-03-20T21:41:11.621Z,0.70
2023-03-20T21:43:39.800Z,1.10
2023-03-20T21:49:43.636Z,0.63
2023-03-20T21:55:12.843Z,0.80
2023-03-20T21:58:04.133Z,0.60
2023-03-20T22:03:10.028Z,0.80
2023-03-20T22:26:08.191Z,1.40
2023-03-20T22:45:11.715Z,1.83
2023-03-20T22:47:40.019Z,1.77
2023-03-20T22:50:09.067Z,2.20
2023-03-20T22:52:48.716Z,2.10
2023-03-20T22:55:18.110Z,2.97
2023-03-20T22:58:03.772Z,2.70
2023-03-20T23:00:33.527Z,2.50
2023-03-20T23:03:15.398Z,2.80
2023-03-20T23:05:45.794Z,3.10
2023-03-20T23:08:15.281Z,3.00
2023-03-20T23:10:44.794Z,3.33
2023-03-20T23:13:13.240Z,3.47
2023-03-20T23:15:41.877Z,3.40
2023-03-20T23:18:11.468Z,3.10
2023-03-20T23:20:39.536Z,4.40
2023-03-20T23:23:07.826Z,4.20
2023-03-20T23:25:39.704Z,4.20
2023-03-20T23:28:08.682Z,4.80
2023-03-20T23:30:45.245Z,4.63
2023-03-20T23:33:14.994Z,4.83
2023-03-20T23:35:42.883Z,5.20
2023-03-20T23:38:10.929Z,5.33
2023-03-20T23:40:40.608Z,5.30
2023-03-20T23:43:08.675Z,6.20
2023-03-20T23:45:36.743Z,6.33
2023-03-20T23:48:05.567Z,6.23
2023-03-20T23:50:46.072Z,6.33
2023-03-20T23:53:21.177Z,4.47
2023-03-20T23:55:53.742Z,4.07
2023-03-20T23:58:23.381Z,3.60
